createdAt,value
2018-06-30T00:00:23.409Z,23.37
2018-06-30T00:01:33.258Z,23.34
2018-06-30T00:02:43.426Z,23.29
2018-06-30T00:03:52.858Z,23.29
2018-06-30T00:05:02.994Z,23.21
2018-06-30T00:06:12.823Z,23.24
2018-06-30T00:07:22.923Z,23.28
2018-06-30T00:08:33.018Z,23.22
2018-06-30T00:09:43.112Z,23.14
2018-06-30T00:10:52.941Z,23.09
2018-06-30T00:12:03.028Z,23.1
2018-06-30T00:13:13.123Z,23.14
2018-06-30T00:14:23.286Z,23.1
2018-06-30T00:15:33.420Z,23.1
2018-06-30T00:16:43.544Z,22.96
2018-06-30T00:17:53.624Z,23.03
2018-06-30T00:19:03.164Z,22.91
2018-06-30T00:20:13.248Z,22.91
2018-06-30T00:21:23.352Z,22.97
2018-06-30T00:22:33.436Z,22.96
2018-06-30T00:23:43.508Z,22.86
2018-06-30T00:24:53.610Z,22.88
2018-06-30T00:26:03.162Z,22.75
2018-06-30T00:27:13.262Z,22.82
2018-06-30T00:28:23.352Z,22.73
2018-06-30T00:29:33.179Z,22.79
2018-06-30T00:30:43.254Z,22.7
2018-06-30T00:31:53.385Z,22.67
2018-06-30T00:33:03.208Z,22.69
2018-06-30T00:34:13.280Z,22.66
2018-06-30T00:35:23.371Z,22.52
2018-06-30T00:36:33.459Z,22.51
2018-06-30T00:37:43.792Z,22.51
2018-06-30T00:38:53.869Z,22.51
2018-06-30T00:40:03.707Z,22.42
2018-06-30T00:41:13.521Z,22.42
2018-06-30T00:42:23.598Z,22.44
2018-06-30T00:43:33.682Z,22.38
2018-06-30T00:44:43.762Z,22.45
2018-06-30T00:45:53.832Z,22.46
2018-06-30T00:47:03.649Z,22.45
2018-06-30T00:48:13.711Z,22.39
2018-06-30T00:49:23.826Z,22.31
2018-06-30T00:50:33.904Z,22.38
2018-06-30T00:51:43.768Z,22.36
2018-06-30T00:52:53.594Z,22.29
2018-06-30T00:54:03.664Z,22.3
2018-06-30T00:55:13.736Z,22.3
2018-06-30T00:56:23.808Z,22.41
2018-06-30T00:57:33.617Z,22.27
2018-06-30T00:58:43.688Z,22.29
2018-06-30T00:59:53.751Z,22.27
2018-06-30T01:01:03.573Z,22.34
2018-06-30T01:02:13.639Z,22.27
2018-06-30T01:03:23.712Z,22.3
2018-06-30T01:04:33.852Z,22.29
2018-06-30T01:05:43.934Z,22.29
2018-06-30T01:06:54.047Z,22.29
2018-06-30T01:08:03.848Z,22.33
2018-06-30T01:09:13.648Z,22.24
2018-06-30T01:10:23.725Z,22.3
2018-06-30T01:11:33.534Z,22.22
2018-06-30T01:12:43.337Z,22.27
2018-06-30T01:13:53.432Z,22.15
2018-06-30T01:15:03.496Z,22.24
2018-06-30T01:16:13.567Z,22.2
2018-06-30T01:17:23.643Z,22.15
2018-06-30T01:18:33.739Z,22.12
2018-06-30T01:19:43.821Z,22.2
2018-06-30T01:20:53.889Z,22.16
2018-06-30T01:22:04.003Z,22.16
2018-06-30T01:23:14.069Z,22.2
2018-06-30T01:24:23.941Z,22.09
2018-06-30T01:25:34.015Z,22.12
2018-06-30T01:26:44.109Z,22.07
2018-06-30T01:27:54.196Z,22.15
2018-06-30T01:29:04.276Z,22.09
2018-06-30T01:30:14.408Z,22.15
2018-06-30T01:31:23.958Z,22.12
2018-06-30T01:32:33.774Z,22.04
2018-06-30T01:33:43.844Z,22.09
2018-06-30T01:34:53.922Z,21.99
2018-06-30T01:36:03.975Z,22.08
2018-06-30T01:37:13.526Z,22.07
2018-06-30T01:38:23.365Z,22.11
2018-06-30T01:39:33.171Z,22.02
2018-06-30T01:40:43.240Z,22
2018-06-30T01:41:53.054Z,21.96
2018-06-30T01:43:03.120Z,21.99
2018-06-30T01:44:13.220Z,21.99
2018-06-30T01:45:23.295Z,22.07
2018-06-30T01:46:33.168Z,22.07
2018-06-30T01:47:43.235Z,21.97
2018-06-30T01:48:53.346Z,22.04
2018-06-30T01:50:03.191Z,22.04
2018-06-30T01:51:13.305Z,21.92
2018-06-30T01:52:23.136Z,21.97
2018-06-30T01:53:33.217Z,21.97
2018-06-30T01:54:43.293Z,21.94
2018-06-30T01:55:53.371Z,21.94
2018-06-30T01:57:02.918Z,21.92
2018-06-30T01:58:13.018Z,21.97
2018-06-30T01:59:23.094Z,22.04
2018-06-30T02:00:32.909Z,21.92
2018-06-30T02:01:42.996Z,21.89
2018-06-30T02:02:53.065Z,21.82
2018-06-30T02:04:03.122Z,21.93
2018-06-30T02:05:13.192Z,21.85
2018-06-30T02:06:23.040Z,21.82
2018-06-30T02:07:33.106Z,21.92
2018-06-30T02:08:43.178Z,21.86
2018-06-30T02:09:53.001Z,21.92
2018-06-30T02:11:03.071Z,21.85
2018-06-30T02:12:13.127Z,21.92
2018-06-30T02:13:23.204Z,21.83
2018-06-30T02:14:33.276Z,21.89
2018-06-30T02:15:43.352Z,21.83
2018-06-30T02:16:53.167Z,21.85
2018-06-30T02:18:03.248Z,21.78
2018-06-30T02:19:13.326Z,21.8
2018-06-30T02:20:23.414Z,21.77
2018-06-30T02:21:33.563Z,21.83
2018-06-30T02:22:43.727Z,21.78
2018-06-30T02:23:53.798Z,21.83
2018-06-30T02:25:03.872Z,21.78
2018-06-30T02:26:13.701Z,21.82
2018-06-30T02:27:23.499Z,21.89
2018-06-30T02:28:33.428Z,21.77
2018-06-30T02:29:43.506Z,21.8
2018-06-30T02:30:53.328Z,21.85
2018-06-30T02:32:03.135Z,21.85
2018-06-30T02:33:13.209Z,21.82
2018-06-30T02:34:23.085Z,21.8
2018-06-30T02:35:32.882Z,21.86
2018-06-30T02:36:42.980Z,21.89
2018-06-30T02:37:52.811Z,21.8
2018-06-30T02:39:03.076Z,21.85
2018-06-30T02:40:13.110Z,21.78
2018-06-30T02:41:23.174Z,21.85
2018-06-30T02:42:33.261Z,21.9
2018-06-30T02:43:43.338Z,21.92
2018-06-30T02:44:53.142Z,21.82
2018-06-30T02:46:03.344Z,21.78
2018-06-30T02:47:13.870Z,21.78
2018-06-30T02:48:23.941Z,21.82
2018-06-30T02:49:34.069Z,21.82
2018-06-30T02:50:44.130Z,21.74
2018-06-30T02:51:53.943Z,21.83
2018-06-30T02:53:04.023Z,21.77
2018-06-30T02:54:13.836Z,21.8
2018-06-30T02:55:23.909Z,21.8
2018-06-30T02:56:33.972Z,21.86
2018-06-30T02:57:44.026Z,21.89
2018-06-30T02:58:54.114Z,21.89
2018-06-30T03:00:04.201Z,21.82
2018-06-30T03:01:14.290Z,21.83
2018-06-30T03:02:24.382Z,21.92
2018-06-30T03:34:41.722Z,20.49
2018-06-30T03:35:51.771Z,20.56
2018-06-30T03:37:01.840Z,20.61
2018-06-30T03:38:11.649Z,20.63
2018-06-30T03:39:21.722Z,20.74
2018-06-30T03:40:31.827Z,20.82
2018-06-30T03:41:41.915Z,20.81
2018-06-30T03:42:51.998Z,20.94
2018-06-30T03:44:02.078Z,21.06
2018-06-30T03:45:12.143Z,21.18
2018-06-30T03:46:22.161Z,21.28
2018-06-30T03:47:32.324Z,21.41
2018-06-30T03:48:42.400Z,21.45
2018-06-30T03:49:52.458Z,21.58
2018-06-30T03:51:02.260Z,21.74
2018-06-30T03:52:12.335Z,21.71
2018-06-30T03:53:22.402Z,21.86
2018-06-30T03:54:32.475Z,21.93
2018-06-30T03:55:42.551Z,22.08
2018-06-30T03:56:52.368Z,22.11
2018-06-30T03:58:02.453Z,22.23
2018-06-30T03:59:12.515Z,22.29
2018-06-30T04:00:22.322Z,22.46
2018-06-30T04:01:32.405Z,22.46
2018-06-30T04:02:42.213Z,22.52
2018-06-30T04:03:52.014Z,22.45
2018-06-30T04:05:01.560Z,22.6
2018-06-30T04:06:11.642Z,22.75
2018-06-30T04:07:21.704Z,22.73
2018-06-30T04:08:31.785Z,22.76
2018-06-30T04:09:41.841Z,22.81
2018-06-30T04:10:51.642Z,22.82
2018-06-30T04:12:01.681Z,22.86
2018-06-30T04:13:11.491Z,22.89
2018-06-30T04:14:21.560Z,22.91
2018-06-30T04:15:31.684Z,22.99
2018-06-30T04:16:41.746Z,22.97
2018-06-30T04:17:51.810Z,22.89
2018-06-30T04:19:01.883Z,22.94
2018-06-30T04:20:11.700Z,23.06
2018-06-30T04:21:21.794Z,23.03
2018-06-30T04:22:31.854Z,23.1
2018-06-30T04:23:41.686Z,23.19
2018-06-30T04:24:51.748Z,23.22
2018-06-30T04:26:01.821Z,23.32
2018-06-30T04:27:11.883Z,23.34
2018-06-30T04:28:21.702Z,23.4
2018-06-30T04:29:31.761Z,23.47
2018-06-30T04:30:41.582Z,23.52
2018-06-30T04:31:51.644Z,23.55
2018-06-30T04:33:01.238Z,23.66
2018-06-30T04:34:11.062Z,24.48
2018-06-30T04:35:20.864Z,25.96
2018-06-30T04:36:30.916Z,27.37
2018-06-30T04:37:40.975Z,28.27
2018-06-30T04:38:50.832Z,29.13
2018-06-30T04:40:00.923Z,29.89
2018-06-30T04:41:11.017Z,30.51
2018-06-30T04:42:21.073Z,30.96
2018-06-30T04:43:30.882Z,31.34
2018-06-30T04:44:40.963Z,31.63
2018-06-30T04:45:51.053Z,31.94
2018-06-30T04:47:00.871Z,32.16
2018-06-30T04:48:10.937Z,32.27
2018-06-30T04:49:20.770Z,32.25
2018-06-30T04:50:30.593Z,32.23
2018-06-30T04:51:40.674Z,32.3
2018-06-30T04:52:50.754Z,32.46
2018-06-30T04:54:00.833Z,31.34
2018-06-30T04:55:10.913Z,31.18
2018-06-30T04:56:20.994Z,31.03
2018-06-30T04:57:31.120Z,31.45
2018-06-30T04:58:41.391Z,31.87
2018-06-30T04:59:51.450Z,31.55
2018-06-30T05:01:01.538Z,32.09
2018-06-30T05:02:11.619Z,32.45
2018-06-30T05:03:21.697Z,32.84
2018-06-30T05:04:31.767Z,33.16
2018-06-30T05:05:41.839Z,33.32
2018-06-30T05:06:51.669Z,33.56
2018-06-30T05:08:01.783Z,33.62
2018-06-30T05:09:11.609Z,33.59
2018-06-30T05:10:21.672Z,33.89
2018-06-30T05:11:31.494Z,33.92
2018-06-30T05:12:41.633Z,32.83
2018-06-30T05:13:51.861Z,31.8
2018-06-30T05:15:01.943Z,31.63
2018-06-30T05:16:12.000Z,31.93
2018-06-30T05:17:22.077Z,32.56
2018-06-30T05:18:32.139Z,33.03
2018-06-30T05:19:42.267Z,33.44
2018-06-30T05:20:52.331Z,32.35
2018-06-30T05:22:02.143Z,31.3
2018-06-30T05:23:12.224Z,31.03
2018-06-30T05:24:22.321Z,31.01
2018-06-30T05:25:32.187Z,30.31
2018-06-30T05:26:42.269Z,29.77
2018-06-30T05:27:52.086Z,29.43
2018-06-30T05:29:01.901Z,29.2
2018-06-30T05:30:11.722Z,28.8
2018-06-30T05:31:21.803Z,28.41
2018-06-30T05:32:31.875Z,28.05
2018-06-30T05:33:42.672Z,27.66
2018-06-30T05:34:52.711Z,27.34
2018-06-30T05:36:02.525Z,27.09
2018-06-30T05:37:12.070Z,26.99
2018-06-30T05:38:21.864Z,26.78
2018-06-30T05:39:31.951Z,26.68
2018-06-30T05:40:42.023Z,26.57
2018-06-30T05:41:51.585Z,26.47
2018-06-30T05:43:01.675Z,26.42
2018-06-30T05:44:11.490Z,26.38
2018-06-30T05:45:21.812Z,26.24
2018-06-30T05:46:31.895Z,26.19
2018-06-30T05:47:41.711Z,26.19
2018-06-30T05:48:51.559Z,27.37
2018-06-30T05:50:01.619Z,28.92
2018-06-30T05:51:11.720Z,30.03
2018-06-30T05:52:21.788Z,30.18
2018-06-30T05:53:31.870Z,30.67
2018-06-30T05:54:41.932Z,30.21
2018-06-30T05:55:52.022Z,29.7
2018-06-30T05:57:02.110Z,29.35
2018-06-30T05:58:11.920Z,29.03
2018-06-30T05:59:21.872Z,28.88
2018-06-30T06:00:32.064Z,28.67
2018-06-30T06:01:42.139Z,29.36
2018-06-30T06:02:52.215Z,30.48
2018-06-30T06:04:02.085Z,30.93
2018-06-30T06:05:11.918Z,31.1
2018-06-30T06:06:21.986Z,31.43
2018-06-30T06:07:32.056Z,30.99
2018-06-30T06:08:42.129Z,30.14
2018-06-30T06:09:52.686Z,29.29
2018-06-30T06:11:02.934Z,28.63
2018-06-30T06:12:13.011Z,28.16
2018-06-30T06:13:23.105Z,27.98
2018-06-30T06:14:33.202Z,27.86
2018-06-30T06:15:43.289Z,28.2
2018-06-30T06:16:53.103Z,28.79
2018-06-30T06:18:02.656Z,28.73
2018-06-30T06:19:12.748Z,28.35
2018-06-30T06:20:22.573Z,28.03
2018-06-30T06:21:32.645Z,27.69
2018-06-30T06:22:42.717Z,27.51
2018-06-30T06:23:52.534Z,27.36
2018-06-30T06:25:02.606Z,27.34
2018-06-30T06:26:12.758Z,27.57
2018-06-30T06:27:22.847Z,28.35
2018-06-30T06:28:33.114Z,29.32
2018-06-30T06:29:43.275Z,29.43
2018-06-30T06:30:53.344Z,29.15
2018-06-30T06:32:03.423Z,28.97
2018-06-30T06:33:13.523Z,28.83
2018-06-30T06:34:23.610Z,28.92
2018-06-30T06:35:33.485Z,29.55
2018-06-30T06:36:43.814Z,30.04
2018-06-30T06:37:53.613Z,29.87
2018-06-30T06:39:03.671Z,29.54
2018-06-30T06:40:13.756Z,28.86
2018-06-30T06:41:23.835Z,28.27
2018-06-30T06:42:33.932Z,27.84
2018-06-30T06:43:43.999Z,27.36
2018-06-30T06:44:53.836Z,27.09
2018-06-30T06:46:03.917Z,26.94
2018-06-30T06:47:13.787Z,26.86
2018-06-30T06:48:23.862Z,26.81
2018-06-30T06:49:33.964Z,26.79
2018-06-30T06:50:44.029Z,27
2018-06-30T06:51:53.831Z,27.11
2018-06-30T06:53:03.973Z,27.24
2018-06-30T06:54:13.820Z,27.33
2018-06-30T06:55:23.891Z,27.49
2018-06-30T06:56:34.060Z,27.68
2018-06-30T06:57:44.146Z,28.02
2018-06-30T06:58:54.219Z,28.27
2018-06-30T07:00:04.291Z,28.49
2018-06-30T07:01:14.392Z,28.9
2018-06-30T07:02:24.487Z,29.21
2018-06-30T07:03:34.728Z,29.58
2018-06-30T07:04:44.956Z,29.63
2018-06-30T07:05:55.040Z,29.91
2018-06-30T07:07:04.932Z,30.29
2018-06-30T07:08:15.051Z,30.24
2018-06-30T07:09:25.129Z,30.42
2018-06-30T07:10:35.266Z,30.44
2018-06-30T07:11:45.352Z,30.52
2018-06-30T07:12:55.158Z,30.19
2018-06-30T07:14:05.116Z,29.7
2018-06-30T07:15:14.953Z,29.33
2018-06-30T07:16:25.029Z,29.08
2018-06-30T07:17:34.844Z,28.92
2018-06-30T07:18:44.652Z,28.83
2018-06-30T07:19:54.743Z,28.65
2018-06-30T07:21:04.844Z,28.38
2018-06-30T07:22:14.673Z,28.17
2018-06-30T07:23:24.753Z,27.86
2018-06-30T07:24:34.967Z,27.74
2018-06-30T07:25:45.281Z,27.69
2018-06-30T07:26:55.084Z,27.91
2018-06-30T07:28:05.175Z,27.94
2018-06-30T07:29:15.247Z,27.89
2018-06-30T07:30:25.342Z,27.69
2018-06-30T07:31:35.441Z,27.37
2018-06-30T07:32:45.523Z,27.09
2018-06-30T07:33:55.607Z,26.9
2018-06-30T07:35:05.431Z,26.69
2018-06-30T07:36:15.240Z,26.71
2018-06-30T07:37:25.633Z,26.71
2018-06-30T07:38:35.812Z,26.72
2018-06-30T07:39:45.630Z,26.61
2018-06-30T07:40:55.717Z,26.49
2018-06-30T07:42:05.989Z,26.37
2018-06-30T07:43:16.215Z,26.41
2018-06-30T07:44:26.515Z,26.45
2018-06-30T07:45:36.609Z,26.45
2018-06-30T07:46:46.708Z,26.3
2018-06-30T07:47:56.794Z,26.42
2018-06-30T07:49:07.113Z,26.61
2018-06-30T07:50:17.075Z,26.42
2018-06-30T07:51:27.408Z,26.16
2018-06-30T07:52:37.484Z,25.91
2018-06-30T07:53:47.337Z,26.01
2018-06-30T07:54:57.144Z,26.32
2018-06-30T07:56:07.064Z,26.53
2018-06-30T07:57:16.798Z,26.42
2018-06-30T07:58:26.901Z,26.27
2018-06-30T07:59:36.986Z,26.16
2018-06-30T08:00:46.835Z,26.15
2018-06-30T08:01:56.940Z,26.3
2018-06-30T08:03:07.141Z,26.56
2018-06-30T08:04:17.426Z,26.89
2018-06-30T08:05:27.540Z,27.19
2018-06-30T08:06:37.653Z,27.8
2018-06-30T08:07:47.746Z,28.28
2018-06-30T08:08:57.875Z,28.63
2018-06-30T08:10:08.230Z,28.68
2018-06-30T08:11:18.310Z,28.73
2018-06-30T08:12:28.138Z,28.86
2018-06-30T08:13:38.249Z,28.49
2018-06-30T08:14:48.329Z,28.38
2018-06-30T08:15:58.179Z,28.16
2018-06-30T08:17:08.287Z,28.26
2018-06-30T08:18:18.382Z,28.21
2018-06-30T08:19:28.194Z,28.38
2018-06-30T08:20:38.327Z,28.46
2018-06-30T08:21:48.155Z,28.41
2018-06-30T08:22:58.263Z,28.17
2018-06-30T08:24:08.350Z,27.68
2018-06-30T08:25:18.469Z,27.21
2018-06-30T08:26:28.612Z,26.93
2018-06-30T08:27:38.714Z,26.74
2018-06-30T08:28:48.537Z,26.45
2018-06-30T08:29:58.608Z,26.24
2018-06-30T08:31:08.731Z,25.96
2018-06-30T08:32:18.834Z,25.82
2018-06-30T08:33:28.929Z,25.7
2018-06-30T08:34:39.009Z,25.71
2018-06-30T08:35:49.087Z,25.67
2018-06-30T08:36:59.175Z,25.93
2018-06-30T08:38:09.254Z,26.16
2018-06-30T08:39:19.328Z,26.42
2018-06-30T08:40:29.406Z,26.54
2018-06-30T08:41:39.229Z,26.53
2018-06-30T08:42:49.046Z,26.45
2018-06-30T08:43:58.873Z,26.44
2018-06-30T08:45:08.968Z,26.22
2018-06-30T08:46:19.032Z,26.16
2018-06-30T08:47:28.888Z,26.07
2018-06-30T08:48:38.972Z,26.16
2018-06-30T08:49:49.055Z,26.27
2018-06-30T08:50:59.162Z,26.34
2018-06-30T08:52:09.305Z,26.41
2018-06-30T08:53:19.376Z,26.45
2018-06-30T08:54:29.223Z,26.41
2018-06-30T08:55:39.621Z,26.41
2018-06-30T08:56:49.573Z,26.44
2018-06-30T08:57:59.418Z,26.54
2018-06-30T08:59:09.484Z,26.72
2018-06-30T09:00:19.296Z,26.91
2018-06-30T09:01:29.379Z,26.94
2018-06-30T09:02:39.469Z,27.04
2018-06-30T09:03:49.539Z,27.09
2018-06-30T09:04:59.612Z,27.18
2018-06-30T09:06:09.714Z,27.38
2018-06-30T09:07:19.911Z,27.28
2018-06-30T09:08:30.005Z,27.13
2018-06-30T09:09:39.834Z,27.06
2018-06-30T09:10:50.148Z,27.18
2018-06-30T09:12:00.500Z,27.42
2018-06-30T09:13:10.846Z,27.65
2018-06-30T09:14:20.740Z,27.69
2018-06-30T09:15:30.848Z,27.8
2018-06-30T09:16:40.921Z,28.05
2018-06-30T09:17:50.993Z,28.14
2018-06-30T09:19:00.831Z,28.28
2018-06-30T09:20:10.731Z,28.53
2018-06-30T09:21:20.906Z,28.61
2018-06-30T09:22:30.445Z,28.86
2018-06-30T09:23:40.531Z,29.29
2018-06-30T09:24:50.642Z,29.47
2018-06-30T09:26:00.797Z,29.75
2018-06-30T09:27:10.900Z,29.72
2018-06-30T09:28:20.992Z,29.6
2018-06-30T09:29:31.091Z,29.42
2018-06-30T09:30:40.926Z,29.42
2018-06-30T09:31:50.741Z,29.69
2018-06-30T09:33:00.813Z,30.1
2018-06-30T09:34:10.634Z,30.49
2018-06-30T09:35:20.720Z,30.44
2018-06-30T09:36:30.819Z,30.39
2018-06-30T09:37:40.887Z,30.35
2018-06-30T09:38:50.451Z,30.6
2018-06-30T09:40:00.271Z,30.84
2018-06-30T09:41:10.357Z,31.08
2018-06-30T09:42:20.445Z,30.89
2018-06-30T09:43:30.525Z,30.57
2018-06-30T09:44:40.749Z,30.19
2018-06-30T09:45:51.110Z,30
2018-06-30T09:47:00.407Z,29.95
2018-06-30T09:48:10.496Z,30.13
2018-06-30T09:49:20.603Z,30.13
2018-06-30T09:50:30.691Z,29.66
2018-06-30T09:51:40.777Z,29.36
2018-06-30T09:52:50.585Z,29.24
2018-06-30T09:54:00.389Z,29.57
2018-06-30T09:55:10.208Z,30.04
2018-06-30T09:56:20.300Z,30.14
2018-06-30T09:57:30.140Z,30.28
2018-06-30T09:58:40.209Z,30.45
2018-06-30T09:59:50.288Z,30.71
2018-06-30T10:01:00.368Z,30.73
2018-06-30T10:02:10.433Z,31
2018-06-30T10:03:20.245Z,31.03
2018-06-30T10:04:30.093Z,30.93
2018-06-30T10:05:40.229Z,30.91
2018-06-30T10:06:50.478Z,30.97
2018-06-30T10:08:00.864Z,30.94
2018-06-30T10:09:11.183Z,30.71
2018-06-30T10:10:21.571Z,30.39
2018-06-30T10:11:31.143Z,30.11
2018-06-30T10:12:41.459Z,29.91
2018-06-30T10:13:51.733Z,29.67
2018-06-30T10:15:01.844Z,29.61
2018-06-30T10:16:11.676Z,29.43
2018-06-30T10:17:21.930Z,29.66
2018-06-30T10:18:31.776Z,29.54
2018-06-30T10:19:41.935Z,29.4
2018-06-30T10:20:51.790Z,29.21
2018-06-30T10:22:02.158Z,29.15
2018-06-30T10:23:12.278Z,29.08
2018-06-30T10:24:22.382Z,29.06
2018-06-30T10:25:32.253Z,28.92
2018-06-30T10:26:42.321Z,29.06
2018-06-30T10:27:52.412Z,29.51
2018-06-30T10:29:02.496Z,29.89
2018-06-30T10:30:12.591Z,30.16
2018-06-30T10:31:22.954Z,30.16
2018-06-30T10:32:33.106Z,29.75
2018-06-30T10:33:42.962Z,29.35
2018-06-30T10:34:53.109Z,29.06
2018-06-30T10:36:03.213Z,29.33
2018-06-30T10:37:13.035Z,29.66
2018-06-30T10:38:23.149Z,29.82
2018-06-30T10:39:33.275Z,29.48
2018-06-30T10:40:43.482Z,28.97
2018-06-30T10:41:53.544Z,28.51
2018-06-30T10:43:03.684Z,28.61
2018-06-30T10:44:13.235Z,28.83
2018-06-30T10:45:23.310Z,29.01
2018-06-30T10:46:33.449Z,29.26
2018-06-30T10:47:43.603Z,29.26
2018-06-30T10:48:53.430Z,28.85
2018-06-30T10:50:03.544Z,28.48
2018-06-30T10:51:13.644Z,28.7
2018-06-30T10:52:24.287Z,29.06
2018-06-30T10:53:35.348Z,29.05
2018-06-30T10:54:45.438Z,28.91
2018-06-30T10:55:55.347Z,28.98
2018-06-30T10:57:05.450Z,28.82
2018-06-30T10:58:15.533Z,28.68
2018-06-30T10:59:25.629Z,28.46
2018-06-30T11:00:35.669Z,28.55
2018-06-30T11:01:45.851Z,28.51
2018-06-30T11:02:55.443Z,28.53
2018-06-30T11:04:05.711Z,28.48
2018-06-30T11:05:16.379Z,28.6
2018-06-30T11:06:26.700Z,28.6
2018-06-30T11:07:36.793Z,28.72
2018-06-30T11:08:46.885Z,28.7
2018-06-30T11:09:56.954Z,28.7
2018-06-30T11:11:07.158Z,28.76
2018-06-30T11:12:17.359Z,28.76
2018-06-30T11:13:26.925Z,28.68
2018-06-30T11:14:36.768Z,28.65
2018-06-30T11:15:46.859Z,28.67
2018-06-30T11:16:56.958Z,28.67
2018-06-30T11:18:06.531Z,28.65
2018-06-30T11:19:16.364Z,28.64
2018-06-30T11:20:26.456Z,28.7
2018-06-30T11:21:36.546Z,28.63
2018-06-30T11:22:46.600Z,28.63
2018-06-30T11:23:56.693Z,28.6
2018-06-30T11:25:06.863Z,28.6
2018-06-30T11:26:16.692Z,28.64
2018-06-30T11:27:26.784Z,28.65
2018-06-30T11:28:36.670Z,28.73
2018-06-30T11:29:46.765Z,28.61
2018-06-30T11:30:56.612Z,28.65
2018-06-30T11:32:06.718Z,28.65
2018-06-30T11:33:16.799Z,28.64
2018-06-30T11:34:26.658Z,28.65
2018-06-30T11:35:36.226Z,28.58
2018-06-30T11:36:46.326Z,28.67
2018-06-30T11:37:56.439Z,28.64
2018-06-30T11:39:06.559Z,28.65
2018-06-30T11:40:16.724Z,28.7
2018-06-30T11:41:26.836Z,28.72
2018-06-30T11:42:36.937Z,28.64
2018-06-30T11:43:47.010Z,28.67
2018-06-30T11:44:57.108Z,28.65
2018-06-30T11:46:07.227Z,28.65
2018-06-30T11:47:16.783Z,28.68
2018-06-30T11:48:26.876Z,28.72
2018-06-30T11:49:36.708Z,28.78
2018-06-30T11:50:46.811Z,28.7
2018-06-30T11:51:56.924Z,28.65
2018-06-30T11:53:06.823Z,28.57
2018-06-30T11:54:16.911Z,28.65
2018-06-30T11:55:27.016Z,28.58
2018-06-30T11:56:37.089Z,28.48
2018-06-30T11:57:47.223Z,28.54
2018-06-30T11:58:57.071Z,28.51
2018-06-30T12:00:07.409Z,28.55
2018-06-30T12:01:17.245Z,28.57
2018-06-30T12:02:27.345Z,28.64
2018-06-30T12:03:37.798Z,28.6
2018-06-30T12:04:47.970Z,28.7
2018-06-30T12:05:58.080Z,28.64
2018-06-30T12:07:08.165Z,28.58
2018-06-30T12:08:18.262Z,28.49
2018-06-30T12:09:28.600Z,28.54
2018-06-30T12:10:38.761Z,28.48
2018-06-30T12:11:48.826Z,28.53
2018-06-30T12:12:58.927Z,28.53
2018-06-30T12:14:09.041Z,28.46
2018-06-30T12:15:19.319Z,28.48
2018-06-30T12:16:29.424Z,28.51
2018-06-30T12:17:39.521Z,28.51
2018-06-30T12:18:49.614Z,28.53
2018-06-30T12:19:59.713Z,28.58
2018-06-30T12:21:09.556Z,28.67
2018-06-30T12:22:19.691Z,28.73
2018-06-30T12:23:29.762Z,28.67
2018-06-30T12:24:39.860Z,28.65
2018-06-30T12:25:49.956Z,28.65
2018-06-30T12:26:59.782Z,28.67
2018-06-30T12:28:09.865Z,28.64
2018-06-30T12:29:19.431Z,28.64
2018-06-30T12:30:29.757Z,28.51
2018-06-30T12:31:39.869Z,28.53
2018-06-30T12:32:50.004Z,28.51
2018-06-30T12:34:00.095Z,28.53
2018-06-30T12:35:10.494Z,28.61
2018-06-30T12:36:20.593Z,28.65
2018-06-30T12:37:30.689Z,28.7
2018-06-30T12:38:40.782Z,28.68
2018-06-30T12:39:50.878Z,28.7
2018-06-30T12:41:00.687Z,28.76
2018-06-30T12:42:10.524Z,28.82
2018-06-30T12:43:20.620Z,28.88
2018-06-30T12:44:30.752Z,28.92
2018-06-30T12:45:40.890Z,28.82
2018-06-30T12:46:50.975Z,28.85
2018-06-30T12:48:00.804Z,28.79
2018-06-30T12:49:10.920Z,28.73
2018-06-30T12:50:21.009Z,28.73
2018-06-30T12:51:31.132Z,28.68
2018-06-30T12:52:41.211Z,28.63
2018-06-30T12:53:51.309Z,28.82
2018-06-30T12:55:01.591Z,28.86
2018-06-30T12:56:11.955Z,28.79
2018-06-30T12:57:22.115Z,28.86
2018-06-30T12:58:31.681Z,28.91
2018-06-30T12:59:41.792Z,28.9
2018-06-30T13:00:51.675Z,28.97
2018-06-30T13:02:01.776Z,28.97
2018-06-30T13:03:11.885Z,28.83
2018-06-30T13:04:21.995Z,28.83
2018-06-30T13:05:32.098Z,28.64
2018-06-30T13:06:42.197Z,28.7
2018-06-30T13:07:52.314Z,28.64
2018-06-30T13:09:02.527Z,28.68
2018-06-30T13:10:12.353Z,28.64
2018-06-30T13:11:22.446Z,28.64
2018-06-30T13:12:32.580Z,28.61
2018-06-30T13:13:42.653Z,28.64
2018-06-30T13:14:52.760Z,28.7
2018-06-30T13:16:02.878Z,28.7
2018-06-30T13:17:12.966Z,28.68
2018-06-30T13:18:23.050Z,28.64
2018-06-30T13:19:33.134Z,28.72
2018-06-30T13:20:43.283Z,28.58
2018-06-30T13:21:53.387Z,28.63
2018-06-30T13:23:03.544Z,28.64
2018-06-30T13:24:13.468Z,28.72
2018-06-30T13:25:23.297Z,28.7
2018-06-30T13:26:33.390Z,28.7
2018-06-30T13:27:43.257Z,28.72
2018-06-30T13:28:53.704Z,28.68
2018-06-30T13:30:03.836Z,28.65
2018-06-30T13:31:13.945Z,28.58
2018-06-30T13:32:24.098Z,28.48
2018-06-30T13:33:34.189Z,28.43
2018-06-30T13:34:44.022Z,28.48
2018-06-30T13:35:54.139Z,28.35
2018-06-30T13:37:04.248Z,28.31
2018-06-30T13:38:14.106Z,28.31
2018-06-30T13:39:24.187Z,28.23
2018-06-30T13:40:34.299Z,28.2
2018-06-30T13:41:44.469Z,28.23
2018-06-30T13:42:54.308Z,28.17
2018-06-30T13:44:04.410Z,28.2
2018-06-30T13:45:14.504Z,28.08
2018-06-30T13:46:24.176Z,28.2
2018-06-30T13:47:34.084Z,28.26
2018-06-30T13:48:44.199Z,28.28
2018-06-30T13:49:54.271Z,28.3
2018-06-30T13:51:04.370Z,28.43
2018-06-30T13:52:14.475Z,28.38
2018-06-30T13:53:24.363Z,28.45
2018-06-30T13:54:34.457Z,28.39
2018-06-30T13:55:44.566Z,28.42
2018-06-30T13:56:54.642Z,28.36
2018-06-30T13:58:04.754Z,28.3
2018-06-30T13:59:14.569Z,28.3
2018-06-30T14:00:24.413Z,28.28
2018-06-30T14:01:34.508Z,28.26
2018-06-30T14:02:44.624Z,28.17
2018-06-30T14:03:54.729Z,28.28
2018-06-30T14:05:04.854Z,28.28
2018-06-30T14:06:15.046Z,28.2
2018-06-30T14:07:25.129Z,28.17
2018-06-30T14:08:35.232Z,28.09
2018-06-30T14:09:45.333Z,28.02
2018-06-30T14:10:55.150Z,28.02
2018-06-30T14:12:05.233Z,28.05
2018-06-30T14:13:15.662Z,28.05
2018-06-30T14:14:25.521Z,27.94
2018-06-30T14:15:35.632Z,28.03
2018-06-30T14:16:45.723Z,27.94
2018-06-30T14:18:15.247Z,28.03
2018-06-30T14:19:25.260Z,28.02
2018-06-30T14:20:35.363Z,28.11
2018-06-30T14:21:45.454Z,28.09
2018-06-30T14:22:55.527Z,28.08
2018-06-30T14:24:05.690Z,27.98
2018-06-30T14:25:15.533Z,28.02
2018-06-30T14:26:25.638Z,27.99
2018-06-30T14:27:35.721Z,27.96
2018-06-30T14:28:45.956Z,27.99
2018-06-30T14:29:56.090Z,27.93
2018-06-30T14:31:06.190Z,27.98
2018-06-30T14:32:16.271Z,27.99
2018-06-30T14:33:26.383Z,27.89
2018-06-30T14:34:36.521Z,27.86
2018-06-30T14:35:46.617Z,27.84
2018-06-30T14:36:56.692Z,27.83
2018-06-30T14:38:06.815Z,27.75
2018-06-30T14:39:17.140Z,27.72
2018-06-30T14:40:26.956Z,27.75
2018-06-30T14:41:37.036Z,27.61
2018-06-30T14:42:47.127Z,27.62
2018-06-30T14:43:57.333Z,27.59
2018-06-30T14:45:07.421Z,27.46
2018-06-30T14:46:17.240Z,27.62
2018-06-30T14:47:27.374Z,27.62
2018-06-30T14:48:36.930Z,27.55
2018-06-30T14:49:47.023Z,27.66
2018-06-30T14:50:57.146Z,27.57
2018-06-30T14:52:07.230Z,27.66
2018-06-30T14:53:17.069Z,27.62
2018-06-30T14:54:27.167Z,27.65
2018-06-30T14:55:37.254Z,27.59
2018-06-30T14:56:47.087Z,27.66
2018-06-30T14:57:57.183Z,27.65
2018-06-30T14:59:07.294Z,27.62
2018-06-30T15:00:17.375Z,27.55
2018-06-30T15:01:27.478Z,27.61
2018-06-30T15:02:37.289Z,27.53
2018-06-30T15:03:47.376Z,27.52
2018-06-30T15:04:57.233Z,27.37
2018-06-30T15:06:07.313Z,27.45
2018-06-30T15:07:17.529Z,27.36
2018-06-30T15:08:27.798Z,27.43
2018-06-30T15:09:37.360Z,27.21
2018-06-30T15:10:47.471Z,27.23
2018-06-30T15:11:57.300Z,27.26
2018-06-30T15:13:07.311Z,27.19
2018-06-30T15:14:17.425Z,27.24
2018-06-30T15:15:27.512Z,27.13
2018-06-30T15:16:38.451Z,27.24
2018-06-30T15:17:48.279Z,27.16
2018-06-30T15:18:58.656Z,27.12
2018-06-30T15:20:08.763Z,27.08
2018-06-30T15:21:18.868Z,27.15
2018-06-30T15:22:28.957Z,27.12
2018-06-30T15:23:39.036Z,27.13
2018-06-30T15:24:49.173Z,27.15
2018-06-30T15:25:59.314Z,27.13
2018-06-30T15:27:09.392Z,27.15
2018-06-30T15:28:19.492Z,27.13
2018-06-30T15:29:29.088Z,27.15
2018-06-30T15:30:39.180Z,27.12
2018-06-30T15:31:49.277Z,27.11
2018-06-30T15:32:59.095Z,27.16
2018-06-30T15:34:08.929Z,27.11
2018-06-30T15:35:19.013Z,27.12
2018-06-30T15:36:28.882Z,27.13